Time;durP1;ratioP1;P1;durP2;ratioP2;P2;SDS_P1;SDS_P2;PMS_P1;PMS_P2;Temp;Humidity;BMP_temperature;BMP_pressure;BME280_temperature;BME280_humidity;BME280_pressure;Samples;Min_cycle;Max_cycle;Signal;HPM_P1;HPM_P2
2021/03/03 00:00:44;;;;;;;35.55;21.10;;;102.80;1971.20;;;;;;5031565;28;20041;-53
2021/03/03 00:03:10;;;;;;;33.38;19.38;;;102.70;1996.80;;;;;;5031815;28;20037;-53
2021/03/03 00:05:36;;;;;;;29.08;18.90;;;102.70;1996.80;;;;;;5032217;28;20461;-54
2021/03/03 00:08:02;;;;;;;31.58;20.30;;;102.80;1971.20;;;;;;5031857;28;20041;-51
2021/03/03 00:10:27;;;;;;;34.15;20.38;;;102.70;1971.20;;;;;;5031611;28;20025;-54
2021/03/03 00:12:53;;;;;;;36.00;21.40;;;102.70;1971.20;;;;;;5031920;28;20086;-53
2021/03/03 00:15:19;;;;;;;35.40;22.60;;;102.60;1996.80;;;;;;5014219;28;20120;-49
2021/03/03 00:17:45;;;;;;;42.38;26.00;;;102.50;1996.80;;;;;;5031250;28;20400;-53
2021/03/03 00:20:11;;;;;;;44.38;26.88;;;102.50;1996.80;;;;;;5034189;28;20172;-52
2021/03/03 00:22:37;;;;;;;45.78;26.15;;;102.50;1996.80;;;;;;5031816;28;20071;-51
2021/03/03 00:25:04;;;;;;;43.20;25.20;;;102.50;1996.80;;;;;;5031369;28;20538;-53
2021/03/03 00:27:29;;;;;;;52.08;29.38;;;102.50;2022.40;;;;;;5032010;28;20120;-52
2021/03/03 00:29:55;;;;;;;67.90;36.92;;;102.50;1996.80;;;;;;5031698;28;20160;-52
2021/03/03 00:32:21;;;;;;;65.95;31.30;;;102.40;2022.40;;;;;;5032096;28;20024;-52
2021/03/03 00:34:46;;;;;;;43.40;23.45;;;102.40;2022.40;;;;;;5013746;28;20068;-52
2021/03/03 00:37:12;;;;;;;45.78;26.30;;;77.60;2048.00;;;;;;5031750;28;20037;-52
2021/03/03 00:39:38;;;;;;;55.38;33.03;;;77.60;2073.60;;;;;;5031872;28;20108;-52
2021/03/03 00:42:04;;;;;;;69.50;37.85;;;77.70;2073.60;;;;;;5031636;28;20021;-52
2021/03/03 00:44:30;;;;;;;56.72;35.65;;;77.70;2048.00;;;;;;5031500;28;20040;-53
2021/03/03 00:46:55;;;;;;;60.30;36.20;;;77.70;2048.00;;;;;;5031394;28;20022;-54
2021/03/03 00:49:21;;;;;;;65.60;40.95;;;77.70;2048.00;;;;;;5031735;28;20022;-53
2021/03/03 00:51:47;;;;;;;56.92;31.58;;;77.70;2048.00;;;;;;5031338;28;20053;-53
2021/03/03 00:54:12;;;;;;;35.03;21.17;;;77.70;2048.00;;;;;;5033307;28;20017;-53
2021/03/03 00:56:38;;;;;;;46.22;25.88;;;77.60;2073.60;;;;;;5050402;28;20086;-53
2021/03/03 00:59:04;;;;;;;43.20;25.38;;;77.60;2048.00;;;;;;5050896;28;20025;-53
2021/03/03 01:01:29;;;;;;;33.00;20.77;;;77.60;2048.00;;;;;;5051238;28;20033;-52
2021/03/03 01:03:55;;;;;;;37.15;23.48;;;77.50;2048.00;;;;;;5051183;28;20040;-52
2021/03/03 01:06:21;;;;;;;45.78;30.48;;;77.50;2048.00;;;;;;5051120;28;20670;-52
2021/03/03 01:08:46;;;;;;;30.80;21.45;;;77.50;2048.00;;;;;;5050995;28;20029;-52
2021/03/03 01:11:12;;;;;;;29.85;18.20;;;77.40;2073.60;;;;;;5051164;28;20025;-52
2021/03/03 01:13:38;;;;;;;27.08;15.70;;;77.40;2073.60;;;;;;5050961;28;20044;-51
2021/03/03 01:16:04;;;;;;;29.55;18.30;;;77.30;2073.60;;;;;;5050806;28;20029;-54
2021/03/03 01:18:30;;;;;;;33.30;18.65;;;77.40;2073.60;;;;;;5050643;28;20049;-53
2021/03/03 01:20:56;;;;;;;31.85;19.42;;;77.20;2073.60;;;;;;5050604;28;20103;-54
2021/03/03 01:23:22;;;;;;;30.95;17.52;;;77.20;2099.20;;;;;;5050926;28;20029;-53
2021/03/03 01:25:48;;;;;;;35.72;21.42;;;77.10;2099.20;;;;;;5050670;28;20032;-53
2021/03/03 01:28:13;;;;;;;45.33;29.83;;;77.20;2099.20;;;;;;5050383;28;20035;-53
2021/03/03 01:30:39;;;;;;;37.35;26.40;;;77.20;2073.60;;;;;;5050550;28;20028;-52
2021/03/03 01:33:05;;;;;;;39.88;21.73;;;77.20;2073.60;;;;;;5050368;28;20033;-54
2021/03/03 01:35:31;;;;;;;32.90;17.42;;;77.20;2073.60;;;;;;5050659;28;20028;-52
2021/03/03 01:37:57;;;;;;;45.67;21.95;;;77.30;2048.00;;;;;;5050272;28;20037;-52
2021/03/03 01:40:23;;;;;;;42.85;25.15;;;77.40;2073.60;;;;;;5050493;28;20027;-52
2021/03/03 01:42:48;;;;;;;40.58;21.20;;;77.40;2048.00;;;;;;5050655;28;20112;-52
2021/03/03 01:45:15;;;;;;;37.85;20.27;;;77.30;2048.00;;;;;;5050398;28;20112;-51
2021/03/03 01:47:40;;;;;;;26.52;14.38;;;77.40;2048.00;;;;;;5050482;28;20114;-53
2021/03/03 01:50:08;;;;;;;25.73;15.88;;;77.30;2073.60;;;;;;5050154;28;20055;-53
2021/03/03 01:52:37;;;;;;;26.67;15.73;;;77.30;2073.60;;;;;;5050105;28;20064;-54
2021/03/03 01:55:04;;;;;;;24.15;14.55;;;77.20;2073.60;;;;;;5050318;28;20029;-53
2021/03/03 01:57:30;;;;;;;34.38;17.58;;;77.20;2048.00;;;;;;5050208;28;20045;-53
2021/03/03 01:59:55;;;;;;;32.97;19.20;;;77.10;2073.60;;;;;;5049952;28;20029;-54
2021/03/03 02:02:24;;;;;;;31.92;15.60;;;77.10;2073.60;;;;;;5050327;28;20028;-52
2021/03/03 02:04:54;;;;;;;28.88;16.98;;;77.00;2073.60;;;;;;5050231;28;20029;-52
2021/03/03 02:07:28;;;;;;;28.45;17.20;;;77.00;2099.20;;;;;;5050402;28;20055;-51
2021/03/03 02:10:24;;;;;;;28.02;16.08;;;76.90;2099.20;;;;;;5050116;28;20060;-52
2021/03/03 02:13:00;;;;;;;34.75;21.67;;;76.90;2099.20;;;;;;5050033;28;20033;-53
2021/03/03 02:15:28;;;;;;;31.90;16.58;;;77.00;2073.60;;;;;;5049799;28;20463;-52
2021/03/03 02:17:56;;;;;;;34.38;21.35;;;77.00;2048.00;;;;;;5049786;28;20476;-54
2021/03/03 02:20:26;;;;;;;41.42;21.88;;;77.00;2048.00;;;;;;5049919;28;20449;-52
2021/03/03 02:23:03;;;;;;;42.17;24.70;;;76.90;2099.20;;;;;;5050192;28;20170;-52
2021/03/03 02:25:32;;;;;;;38.22;18.40;;;76.90;2073.60;;;;;;5050060;28;20116;-52
2021/03/03 02:28:07;;;;;;;28.13;17.48;;;77.00;2073.60;;;;;;5049566;28;20100;-53
2021/03/03 02:30:37;;;;;;;37.42;16.98;;;77.00;2048.00;;;;;;5049679;28;20025;-52
2021/03/03 02:33:04;;;;;;;33.10;17.25;;;77.00;2048.00;;;;;;5049927;28;20039;-54
2021/03/03 02:35:31;;;;;;;40.50;19.77;;;77.10;2022.40;;;;;;5049980;28;20033;-53
2021/03/03 02:37:58;;;;;;;30.23;15.70;;;77.00;2048.00;;;;;;5049626;28;20036;-53
2021/03/03 02:40:26;;;;;;;29.95;15.52;;;77.00;2048.00;;;;;;5049690;28;20028;-54
2021/03/03 02:42:52;;;;;;;25.08;14.05;;;77.00;2048.00;;;;;;5049906;28;20029;-53
2021/03/03 02:45:20;;;;;;;27.13;14.48;;;77.00;2048.00;;;;;;5049856;28;20029;-53
2021/03/03 02:47:46;;;;;;;37.58;18.50;;;76.90;2048.00;;;;;;5050325;28;20040;-52
2021/03/03 02:50:13;;;;;;;26.40;12.93;;;77.00;2073.60;;;;;;5053876;28;20029;-52
2021/03/03 02:52:56;;;;;;;22.25;12.00;;;76.80;2073.60;;;;;;5053774;28;20040;-52
2021/03/03 02:55:26;;;;;;;22.67;12.35;;;52.10;2073.60;;;;;;5053592;28;20109;-52
2021/03/03 02:57:56;;;;;;;19.35;11.85;;;52.10;2073.60;;;;;;5053641;28;20056;-52
2021/03/03 03:00:25;;;;;;;21.95;12.45;;;52.10;2073.60;;;;;;5053768;28;20036;-51
2021/03/03 03:03:11;;;;;;;24.10;11.75;;;52.10;2073.60;;;;;;5053741;28;20037;-52
2021/03/03 03:05:41;;;;;;;20.48;11.52;;;52.10;2073.60;;;;;;5053242;28;20098;-52
2021/03/03 03:08:11;;;;;;;20.10;11.75;;;52.10;2073.60;;;;;;5053208;28;20509;-51
2021/03/03 03:10:37;;;;;;;23.15;11.48;;;52.10;2073.60;;;;;;5053055;28;20025;-52
2021/03/03 03:13:06;;;;;;;22.50;11.75;;;52.10;2073.60;;;;;;5053484;28;20744;-52
2021/03/03 03:15:33;;;;;;;21.73;11.88;;;51.90;2073.60;;;;;;5053267;28;20021;-52
2021/03/03 03:18:04;;;;;;;24.33;12.60;;;51.90;2073.60;;;;;;5053213;28;20115;-52
2021/03/03 03:20:34;;;;;;;20.05;11.82;;;51.90;2073.60;;;;;;5052882;28;20106;-51
2021/03/03 03:23:10;;;;;;;19.13;11.30;;;51.90;2073.60;;;;;;5053399;28;20029;-52
2021/03/03 03:25:38;;;;;;;25.20;13.10;;;51.90;2073.60;;;;;;5052873;28;20372;-52
2021/03/03 03:28:04;;;;;;;27.42;16.08;;;51.80;2099.20;;;;;;5052535;28;20490;-52
2021/03/03 03:30:31;;;;;;;54.17;27.90;;;51.80;2073.60;;;;;;5053019;28;20025;-52
2021/03/03 03:32:58;;;;;;;85.50;36.58;;;51.80;2099.20;;;;;;5052882;28;20391;-53
2021/03/03 03:35:26;;;;;;;52.25;25.23;;;52.00;2073.60;;;;;;5052899;28;20029;-53
2021/03/03 03:37:52;;;;;;;35.20;18.48;;;52.00;2073.60;;;;;;5052909;28;20044;-52
2021/03/03 03:40:18;;;;;;;26.77;13.68;;;52.00;2073.60;;;;;;5052615;28;20021;-53
2021/03/03 03:42:45;;;;;;;23.73;12.75;;;51.90;2073.60;;;;;;5052605;28;20044;-53
2021/03/03 03:45:12;;;;;;;21.52;11.27;;;51.80;2073.60;;;;;;5052728;28;20371;-53
2021/03/03 03:47:39;;;;;;;24.27;12.73;;;51.80;2073.60;;;;;;5052216;28;20029;-53
2021/03/03 03:50:06;;;;;;;21.13;11.45;;;51.80;2073.60;;;;;;5052355;28;20025;-53
2021/03/03 03:52:33;;;;;;;46.67;23.63;;;51.70;2099.20;;;;;;5052812;28;20033;-53
2021/03/03 03:54:58;;;;;;;32.85;17.65;;;51.70;2099.20;;;;;;5052659;28;20025;-54
2021/03/03 03:57:24;;;;;;;30.15;15.68;;;51.80;2073.60;;;;;;5052206;28;20095;-53
2021/03/03 03:59:50;;;;;;;32.47;16.35;;;51.80;2073.60;;;;;;5051180;28;20495;-53
2021/03/03 04:02:17;;;;;;;40.63;21.42;;;51.90;2073.60;;;;;;5052217;28;20446;-53
2021/03/03 04:04:43;;;;;;;244.00;186.27;;;51.90;2073.60;;;;;;5052107;28;20056;-53
2021/03/03 04:07:08;;;;;;;36.67;20.65;;;51.90;2073.60;;;;;;5052527;28;20423;-52
2021/03/03 04:09:34;;;;;;;24.23;12.40;;;51.80;2073.60;;;;;;5052023;28;20025;-52
2021/03/03 04:12:01;;;;;;;22.30;10.35;;;51.90;2048.00;;;;;;5052361;28;20057;-53
2021/03/03 04:14:27;;;;;;;21.30;12.48;;;51.70;2073.60;;;;;;5051738;28;20537;-52
2021/03/03 04:16:52;;;;;;;22.80;12.00;;;51.60;2099.20;;;;;;5052198;28;20048;-53
2021/03/03 04:19:18;;;;;;;24.23;13.93;;;51.40;2124.80;;;;;;5034114;28;20045;-52
2021/03/03 04:21:45;;;;;;;21.90;13.30;;;51.50;2124.80;;;;;;5051818;28;20399;-52
2021/03/03 04:24:11;;;;;;;28.00;14.00;;;51.40;2124.80;;;;;;5052132;28;20377;-51
2021/03/03 04:26:37;;;;;;;23.20;11.02;;;51.50;2124.80;;;;;;5051732;28;20032;-52
2021/03/03 04:29:03;;;;;;;13.38;8.27;;;51.60;2099.20;;;;;;5051706;28;20379;-53
2021/03/03 04:31:28;;;;;;;14.15;8.98;;;51.60;2099.20;;;;;;5051887;28;20036;-52
2021/03/03 04:33:54;;;;;;;20.42;11.60;;;51.60;2099.20;;;;;;5051725;28;20134;-54
2021/03/03 04:36:19;;;;;;;15.63;9.02;;;51.40;2124.80;;;;;;5051792;28;20593;-54
2021/03/03 04:38:45;;;;;;;14.02;7.78;;;51.30;2150.40;;;;;;5051549;28;20557;-53
2021/03/03 04:41:11;;;;;;;10.98;7.50;;;51.40;2124.80;;;;;;5051685;28;20495;-53
2021/03/03 04:43:37;;;;;;;17.58;10.15;;;51.30;2150.40;;;;;;5051500;28;20037;-53
2021/03/03 04:46:03;;;;;;;20.48;11.68;;;51.40;2150.40;;;;;;5051465;28;20490;-52
2021/03/03 04:48:28;;;;;;;35.00;20.58;;;51.50;2124.80;;;;;;5051612;28;20521;-52
2021/03/03 04:50:54;;;;;;;31.55;18.50;;;51.60;2124.80;;;;;;5051207;28;20037;-52
2021/03/03 04:53:21;;;;;;;36.15;18.75;;;51.60;2099.20;;;;;;5051396;28;20033;-50
2021/03/03 04:55:47;;;;;;;36.03;18.88;;;51.70;2099.20;;;;;;5051136;28;20036;-52
2021/03/03 04:58:12;;;;;;;31.30;17.25;;;51.70;2099.20;;;;;;5050960;28;20085;-52
2021/03/03 05:00:38;;;;;;;26.73;16.65;;;51.60;2099.20;;;;;;5051109;28;20051;-52
2021/03/03 05:03:04;;;;;;;25.85;14.43;;;51.50;2124.80;;;;;;5051148;28;20021;-54
2021/03/03 05:05:30;;;;;;;48.22;26.15;;;51.40;2124.80;;;;;;5051160;28;20055;-51
2021/03/03 05:07:55;;;;;;;62.60;32.05;;;51.40;2124.80;;;;;;5051183;28;20550;-52
2021/03/03 05:10:21;;;;;;;66.53;32.85;;;51.50;2124.80;;;;;;5050975;28;20017;-52
2021/03/03 05:12:47;;;;;;;56.13;30.50;;;51.50;2124.80;;;;;;5050908;28;20353;-52
2021/03/03 05:15:13;;;;;;;49.85;27.35;;;51.70;2099.20;;;;;;5051017;28;20029;-52
2021/03/03 05:17:39;;;;;;;45.17;22.70;;;51.70;2073.60;;;;;;5050904;28;20032;-52
2021/03/03 05:20:07;;;;;;;56.35;29.33;;;51.80;2099.20;;;;;;5050484;28;20060;-51
2021/03/03 05:22:33;;;;;;;28.17;14.65;;;51.80;2073.60;;;;;;5050586;28;20033;-53
2021/03/03 05:24:58;;;;;;;19.52;12.90;;;51.20;2150.40;;;;;;5050874;28;20024;-52
2021/03/03 05:27:24;;;;;;;23.13;14.93;;;26.30;2176.00;;;;;;5050503;28;20162;-51
2021/03/03 05:29:50;;;;;;;22.48;12.82;;;26.20;2176.00;;;;;;5046569;28;20037;-51
2021/03/03 05:32:15;;;;;;;24.27;11.40;;;26.50;2150.40;;;;;;5039956;28;20057;-50
2021/03/03 05:34:41;;;;;;;22.75;12.90;;;51.20;2150.40;;;;;;5039736;28;20025;-53
2021/03/03 05:37:06;;;;;;;25.98;13.32;;;51.30;2124.80;;;;;;5041070;28;20456;-53
2021/03/03 05:39:32;;;;;;;63.13;28.42;;;51.50;2073.60;;;;;;5050732;28;20029;-53
2021/03/03 05:42:02;;;;;;;36.80;18.85;;;51.70;2073.60;;;;;;5050699;28;20021;-53
2021/03/03 05:44:28;;;;;;;20.13;12.45;;;51.60;2073.60;;;;;;5050612;28;20071;-54
2021/03/03 05:46:57;;;;;;;26.67;14.52;;;51.50;2073.60;;;;;;5050325;28;20052;-54
2021/03/03 05:49:25;;;;;;;25.90;13.30;;;51.50;2099.20;;;;;;5050389;28;20430;-51
2021/03/03 05:51:53;;;;;;;28.95;15.40;;;51.60;2073.60;;;;;;5041760;28;20033;-51
2021/03/03 05:54:20;;;;;;;30.27;15.50;;;51.70;2048.00;;;;;;5047169;28;20112;-49
2021/03/03 05:56:46;;;;;;;39.35;21.75;;;51.90;2048.00;;;;;;5050233;28;20128;-51
2021/03/03 05:59:15;;;;;;;61.65;31.45;;;52.10;2022.40;;;;;;5050386;28;20384;-51
2021/03/03 06:01:41;;;;;;;84.75;43.33;;;52.10;2022.40;;;;;;5050222;28;20388;-51
2021/03/03 06:04:09;;;;;;;63.05;37.95;;;76.80;1996.80;;;;;;5050100;28;20031;-53
2021/03/03 06:06:38;;;;;;;151.85;85.38;;;76.90;1996.80;;;;;;5049860;28;20389;-51
2021/03/03 06:09:04;;;;;;;35.05;20.33;;;76.90;1996.80;;;;;;5049933;28;20525;-54
2021/03/03 06:11:30;;;;;;;22.80;13.82;;;77.00;1971.20;;;;;;5050383;28;20029;-50
2021/03/03 06:13:59;;;;;;;19.13;12.27;;;76.90;1996.80;;;;;;5050048;28;20383;-51
2021/03/03 06:16:26;;;;;;;33.63;14.85;;;76.90;1996.80;;;;;;5049974;28;20142;-50
2021/03/03 06:18:55;;;;;;;26.70;15.23;;;76.90;1996.80;;;;;;5049948;28;20041;-50
2021/03/03 06:21:28;;;;;;;30.17;15.35;;;77.20;1971.20;;;;;;5050119;28;20032;-53
2021/03/03 06:24:03;;;;;;;;;;;77.30;1945.60;;;;;;5049931;28;20103;-53
2021/03/03 06:26:29;;;;;;;26.83;15.05;;;77.50;1920.00;;;;;;5049844;28;19912;-50
2021/03/03 06:28:55;;;;;;;29.45;16.55;;;77.50;1920.00;;;;;;5031936;28;20029;-52
2021/03/03 06:31:35;;;;;;;30.77;18.67;;;102.80;1843.20;;;;;;5039259;28;20061;-51
2021/03/03 06:34:12;;;;;;;30.02;17.80;;;154.20;1638.40;;;;;;5029976;28;20076;-53
2021/03/03 06:36:43;;;;;;;25.10;17.30;;;180.00;1510.40;;;;;;5030041;28;20396;-51
2021/03/03 06:39:38;;;;;;;26.23;16.60;;;230.50;1356.80;;;;;;5029807;28;20041;-52
2021/03/03 06:42:09;;;;;;;43.58;20.52;;;256.20;1254.40;;;;;;5029723;28;20025;-52
2021/03/03 06:44:48;;;;;;;34.30;22.88;;;282.30;1177.60;;;;;;5029829;28;20346;-53
2021/03/03 06:47:14;;;;;;;24.70;22.08;;;332.80;1126.40;;;;;;5029703;28;20029;-53
2021/03/03 06:49:40;;;;;;;27.83;23.20;;;333.70;1049.60;;;;;;5029999;28;20026;-54
2021/03/03 06:52:06;;;;;;;33.22;29.85;;;359.20;998.40;;;;;;5029642;28;20021;-55
2021/03/03 06:54:32;;;;;;;44.10;34.80;;;409.80;921.60;;;;;;5030862;28;20136;-55
2021/03/03 06:56:59;;;;;;;100.05;68.10;;;410.20;896.00;;;;;;5029600;28;20041;-55
2021/03/03 06:59:26;;;;;;;62.40;47.22;;;435.80;819.20;;;;;;5029824;28;20039;-55
2021/03/03 07:01:52;;;;;;;24.42;22.00;;;435.60;793.60;;;;;;5029805;28;20018;-54
2021/03/03 07:04:31;;;;;;;33.25;27.20;;;435.20;819.20;;;;;;5029576;28;20032;-53
2021/03/03 07:06:59;;;;;;;33.22;25.17;;;410.50;844.80;;;;;;5029368;28;20025;-55
2021/03/03 07:09:37;;;;;;;32.38;29.00;;;435.90;768.00;;;;;;5029484;28;20025;-52
2021/03/03 07:12:06;;;;;;;25.63;22.58;;;461.40;768.00;;;;;;5029746;28;20083;-52
2021/03/03 07:14:32;;;;;;;30.10;22.85;;;460.80;793.60;;;;;;5029343;28;20426;-53
2021/03/03 07:17:09;;;;;;;42.90;23.95;;;435.60;793.60;;;;;;5029333;28;20029;-51
2021/03/03 07:19:37;;;;;;;25.48;19.52;;;409.70;870.40;;;;;;5029243;28;20045;-52
2021/03/03 07:22:06;;;;;;;23.58;17.73;;;358.80;972.80;;;;;;5029458;28;20095;-51
2021/03/03 07:24:32;;;;;;;25.73;17.08;;;333.30;1049.60;;;;;;5029673;28;20068;-52
2021/03/03 07:27:00;;;;;;;33.33;21.90;;;332.90;1075.20;;;;;;5029429;28;20365;-52
2021/03/03 07:29:26;;;;;;;34.10;24.65;;;359.30;947.20;;;;;;5029140;28;20082;-53
2021/03/03 07:31:53;;;;;;;36.10;30.33;;;435.20;870.40;;;;;;5029689;28;20029;-53
2021/03/03 07:34:20;;;;;;;59.70;47.85;;;461.40;793.60;;;;;;5030653;28;20029;-52
2021/03/03 07:36:50;;;;;;;73.30;53.65;;;460.90;819.20;;;;;;5026149;28;20025;-56
2021/03/03 07:39:18;;;;;;;72.18;53.20;;;436.10;793.60;;;;;;5032404;28;20777;-56
2021/03/03 07:41:46;;;;;;;66.75;51.15;;;486.40;768.00;;;;;;5032722;28;20037;-55
2021/03/03 07:44:18;;;;;;;125.28;111.55;;;486.70;742.40;;;;;;5032038;28;20033;-54
2021/03/03 07:46:48;;;;;;;49.08;43.55;;;487.30;716.80;;;;;;5032229;28;20387;-56
2021/03/03 07:49:20;;;;;;;56.08;47.22;;;512.50;691.20;;;;;;5041592;28;20029;-56
2021/03/03 07:51:46;;;;;;;47.95;40.85;;;512.90;691.20;;;;;;5023772;28;20087;-56
2021/03/03 07:54:12;;;;;;;44.05;38.72;;;537.60;691.20;;;;;;5033561;28;20026;-56
2021/03/03 07:56:39;;;;;;;45.25;40.22;;;538.40;665.60;;;;;;5032281;28;20022;-56
2021/03/03 07:59:06;;;;;;;40.60;36.25;;;538.50;665.60;;;;;;5031544;28;20117;-57
2021/03/03 08:01:33;;;;;;;45.08;36.65;;;589.00;588.80;;;;;;5032302;28;20461;-56
2021/03/03 08:03:59;;;;;;;48.92;40.75;;;589.20;588.80;;;;;;5039620;28;20064;-57
2021/03/03 08:06:28;;;;;;;23.63;20.33;;;589.70;563.20;;;;;;5047504;28;20060;-56
2021/03/03 08:09:06;;;;;;;26.67;22.90;;;614.80;512.00;;;;;;5051815;28;20411;-57
2021/03/03 08:11:43;;;;;;;29.08;25.58;;;614.50;537.60;;;;;;5052167;28;20112;-56
2021/03/03 08:14:29;;;;;;;32.33;28.83;;;614.90;512.00;;;;;;5051778;28;20135;-57
2021/03/03 08:16:56;;;;;;;39.45;35.22;;;640.00;486.40;;;;;;5051621;28;20025;-57
2021/03/03 08:19:42;;;;;;;52.58;47.25;;;665.60;486.40;;;;;;5051426;28;20091;-56
2021/03/03 08:22:08;;;;;;;46.13;40.53;;;665.90;486.40;;;;;;5051662;28;20403;-56
2021/03/03 08:24:38;;;;;;;46.95;40.72;;;640.30;486.40;;;;;;5051802;28;20025;-59
2021/03/03 08:27:32;;;;;;;49.22;40.65;;;640.10;512.00;;;;;;5051035;28;20033;-57
2021/03/03 08:30:11;;;;;;;69.57;56.47;;;640.70;460.80;;;;;;5046918;28;20033;-57
2021/03/03 08:32:37;;;;;;;73.97;58.83;;;665.70;486.40;;;;;;5051378;28;20029;-57
2021/03/03 08:35:04;;;;;;;58.33;47.42;;;691.60;435.20;;;;;;5050564;28;20124;-57
2021/03/03 08:37:32;;;;;;;54.92;49.00;;;691.30;435.20;;;;;;5051308;28;20400;-57
2021/03/03 08:39:59;;;;;;;52.08;44.38;;;692.00;409.60;;;;;;5051253;28;20051;-58
2021/03/03 08:42:35;;;;;;;62.78;50.72;;;640.70;460.80;;;;;;5051037;28;20078;-57
2021/03/03 08:45:01;;;;;;;58.28;50.88;;;666.00;486.40;;;;;;5050992;28;20036;-57
2021/03/03 08:47:45;;;;;;;63.53;56.10;;;640.10;512.00;;;;;;5050829;28;20017;-57
2021/03/03 08:50:32;;;;;;;60.50;51.75;;;691.90;435.20;;;;;;5050093;28;20025;-57
2021/03/03 08:53:17;;;;;;;51.35;43.38;;;717.10;435.20;;;;;;5040985;28;20472;-57
2021/03/03 08:55:43;;;;;;;29.52;26.40;;;691.70;460.80;;;;;;5041905;28;20014;-57
2021/03/03 08:58:33;;;;;;;35.80;31.33;;;665.60;512.00;;;;;;5039149;28;20049;-57
2021/03/03 09:00:59;;;;;;;45.45;40.38;;;665.70;512.00;;;;;;5040817;28;20375;-57
2021/03/03 09:03:26;;;;;;;64.40;53.70;;;666.30;486.40;;;;;;5039598;28;20079;-57
2021/03/03 09:05:53;;;;;;;58.90;49.88;;;691.20;486.40;;;;;;5040729;28;20387;-57
2021/03/03 09:08:27;;;;;;;82.60;72.50;;;691.80;460.80;;;;;;5040904;28;20468;-57
2021/03/03 09:10:53;;;;;;;77.38;60.70;;;716.90;460.80;;;;;;5040166;28;20044;-57
2021/03/03 09:13:26;;;;;;;82.60;73.45;;;717.30;460.80;;;;;;5039594;28;20021;-56
2021/03/03 09:16:11;;;;;;;64.82;57.20;;;665.90;537.60;;;;;;5040058;28;20029;-56
2021/03/03 09:18:38;;;;;;;51.72;45.85;;;640.90;512.00;;;;;;5039880;28;20107;-56
2021/03/03 09:21:08;;;;;;;69.90;61.75;;;665.60;537.60;;;;;;5039069;28;20160;-56
2021/03/03 09:23:35;;;;;;;61.47;46.42;;;640.50;537.60;;;;;;5039774;28;20018;-56
2021/03/03 09:26:01;;;;;;;55.50;45.13;;;614.60;588.80;;;;;;5039570;28;20025;-56
2021/03/03 09:28:42;;;;;;;41.67;34.65;;;614.40;614.40;;;;;;5041005;28;20040;-57
2021/03/03 09:31:08;;;;;;;39.20;32.03;;;589.00;640.00;;;;;;5040807;28;20025;-57
2021/03/03 09:33:34;;;;;;;39.42;27.83;;;538.00;716.80;;;;;;5039142;28;20030;-56
2021/03/03 09:36:00;;;;;;;46.55;32.50;;;537.60;716.80;;;;;;5039349;28;20104;-56
2021/03/03 09:38:30;;;;;;;37.20;26.90;;;512.50;716.80;;;;;;5040823;28;20030;-56
2021/03/03 09:41:08;;;;;;;39.42;32.10;;;487.20;742.40;;;;;;5039551;28;20056;-56
2021/03/03 09:43:33;;;;;;;44.13;29.33;;;486.40;819.20;;;;;;5039469;28;20025;-54
2021/03/03 09:45:59;;;;;;;33.47;23.50;;;461.40;870.40;;;;;;5039538;28;20033;-57
2021/03/03 09:48:28;;;;;;;33.17;22.27;;;435.80;896.00;;;;;;5040503;28;20029;-55
2021/03/03 09:50:55;;;;;;;36.83;27.95;;;460.80;896.00;;;;;;5038711;28;20033;-56
2021/03/03 09:53:21;;;;;;;28.05;20.10;;;461.10;870.40;;;;;;5040394;28;20091;-55
2021/03/03 09:55:47;;;;;;;32.05;20.30;;;460.90;870.40;;;;;;5037980;28;20029;-56
2021/03/03 09:58:14;;;;;;;28.35;20.33;;;436.00;870.40;;;;;;5039036;28;20132;-55
2021/03/03 10:00:40;;;;;;;31.90;21.80;;;435.90;870.40;;;;;;5040170;28;20104;-55
2021/03/03 10:03:12;;;;;;;34.13;21.95;;;435.50;896.00;;;;;;5037832;28;20108;-56
2021/03/03 10:05:38;;;;;;;29.35;19.50;;;435.20;921.60;;;;;;5038793;28;20017;-55
2021/03/03 10:08:15;;;;;;;26.10;18.20;;;435.30;921.60;;;;;;5040151;28;20448;-56
2021/03/03 10:10:45;;;;;;;29.52;17.27;;;435.30;896.00;;;;;;5040580;28;20086;-56
2021/03/03 10:13:21;;;;;;;21.40;15.63;;;410.50;921.60;;;;;;5039035;28;20025;-56
2021/03/03 10:15:47;;;;;;;20.27;13.88;;;410.00;921.60;;;;;;5038121;28;20053;-56
2021/03/03 10:18:13;;;;;;;25.73;15.55;;;410.10;896.00;;;;;;5039962;28;20037;-56
2021/03/03 10:20:43;;;;;;;24.70;16.13;;;410.20;896.00;;;;;;5039668;28;20541;-55
2021/03/03 10:23:17;;;;;;;22.27;13.98;;;410.00;870.40;;;;;;5038675;28;20029;-56
2021/03/03 10:25:45;;;;;;;22.38;13.27;;;409.70;870.40;;;;;;5038797;28;20025;-57
2021/03/03 10:28:14;;;;;;;23.50;15.32;;;409.70;896.00;;;;;;5038742;28;20049;-56
2021/03/03 10:30:48;;;;;;;28.55;21.27;;;410.10;896.00;;;;;;5039089;28;20067;-56
2021/03/03 10:33:31;;;;;;;50.70;34.88;;;409.90;921.60;;;;;;5038802;28;20017;-56
2021/03/03 10:36:02;;;;;;;25.90;15.32;;;410.00;921.60;;;;;;5047867;28;20116;-57
2021/03/03 10:38:28;;;;;;;40.35;20.02;;;409.60;921.60;;;;;;5049670;28;20072;-56
2021/03/03 10:40:57;;;;;;;48.80;32.58;;;409.90;921.60;;;;;;5049779;28;20032;-56
2021/03/03 10:43:25;;;;;;;26.20;17.20;;;410.20;896.00;;;;;;5050027;28;20103;-55
2021/03/03 10:46:13;;;;;;;29.10;16.83;;;410.00;896.00;;;;;;5049572;28;20025;-56
2021/03/03 10:48:39;;;;;;;28.75;18.70;;;409.70;921.60;;;;;;5049816;28;20056;-57
2021/03/03 10:51:06;;;;;;;25.27;15.63;;;410.20;896.00;;;;;;5049279;28;20486;-57
2021/03/03 10:53:57;;;;;;;27.20;16.80;;;409.90;896.00;;;;;;5049618;28;20459;-56
2021/03/03 10:56:30;;;;;;;35.80;19.13;;;410.20;844.80;;;;;;5049536;28;20490;-57
2021/03/03 10:59:23;;;;;;;25.08;14.80;;;435.30;819.20;;;;;;5049473;28;20037;-57
2021/03/03 11:01:55;;;;;;;21.08;14.32;;;435.30;793.60;;;;;;5047587;28;20365;-56
2021/03/03 11:04:21;;;;;;;23.80;15.77;;;435.30;793.60;;;;;;5049668;28;20029;-57
2021/03/03 11:06:47;;;;;;;27.95;15.32;;;410.40;793.60;;;;;;5049275;28;20109;-56
2021/03/03 11:09:18;;;;;;;16.45;11.30;;;410.20;768.00;;;;;;5050734;28;20513;-57
2021/03/03 11:11:52;;;;;;;15.77;11.27;;;410.00;768.00;;;;;;5053130;28;20033;-57
2021/03/03 11:14:18;;;;;;;22.67;12.50;;;410.50;768.00;;;;;;5053256;28;20021;-57
2021/03/03 11:16:47;;;;;;;29.48;17.88;;;410.50;716.80;;;;;;5053021;28;20147;-57
2021/03/03 11:19:14;;;;;;;21.40;11.73;;;435.30;716.80;;;;;;5050633;28;20118;-57
2021/03/03 11:21:40;;;;;;;16.27;11.93;;;435.20;716.80;;;;;;5053004;28;20029;-57
2021/03/03 11:24:06;;;;;;;26.10;16.45;;;435.30;768.00;;;;;;5052944;28;20372;-55
2021/03/03 11:26:32;;;;;;;18.25;11.20;;;435.60;716.80;;;;;;5052936;28;20036;-53
2021/03/03 11:28:59;;;;;;;13.40;9.45;;;435.70;691.20;;;;;;5049004;28;20148;-55
2021/03/03 11:31:24;;;;;;;19.33;14.30;;;435.20;691.20;;;;;;5050166;28;20036;-56
2021/03/03 11:33:50;;;;;;;26.85;17.38;;;410.50;716.80;;;;;;5052712;28;20029;-59
2021/03/03 11:36:16;;;;;;;23.05;13.48;;;435.20;716.80;;;;;;5051757;28;20445;-58
2021/03/03 11:38:42;;;;;;;32.40;19.95;;;410.20;742.40;;;;;;5052521;28;20387;-53
2021/03/03 11:41:07;;;;;;;20.98;12.77;;;410.40;742.40;;;;;;5052384;28;20083;-69
2021/03/03 11:43:33;;;;;;;16.98;11.70;;;435.30;768.00;;;;;;5052210;28;20035;-68
2021/03/03 11:45:58;;;;;;;18.52;11.73;;;435.20;716.80;;;;;;5052423;28;20029;-66
2021/03/03 11:48:24;;;;;;;21.80;12.38;;;460.80;793.60;;;;;;5052508;28;20113;-63
2021/03/03 11:50:50;;;;;;;27.13;18.02;;;436.10;691.20;;;;;;5051736;28;20028;-63
2021/03/03 11:53:15;;;;;;;24.73;15.32;;;436.10;691.20;;;;;;5052296;28;20364;-62
2021/03/03 11:55:41;;;;;;;30.10;19.48;;;436.10;691.20;;;;;;5052621;28;20475;-62
2021/03/03 11:58:07;;;;;;;39.50;25.50;;;435.90;716.80;;;;;;5051600;28;20041;-60
2021/03/03 12:00:33;;;;;;;34.85;22.90;;;435.60;716.80;;;;;;5052032;28;20494;-58
2021/03/03 12:02:58;;;;;;;24.25;15.57;;;435.60;716.80;;;;;;5052221;28;20052;-60
2021/03/03 12:05:24;;;;;;;32.72;19.98;;;435.50;742.40;;;;;;5051655;28;20025;-61
2021/03/03 12:07:50;;;;;;;46.42;29.23;;;435.30;691.20;;;;;;5051982;28;20025;-59
2021/03/03 12:10:17;;;;;;;27.63;15.73;;;435.20;716.80;;;;;;5052069;28;20021;-61
2021/03/03 12:12:42;;;;;;;22.10;13.13;;;435.50;716.80;;;;;;5052180;28;20036;-60
2021/03/03 12:15:09;;;;;;;21.40;13.77;;;435.80;691.20;;;;;;5052193;28;20387;-60